Time;durP1;ratioP1;P1;durP2;ratioP2;P2;SDS_P1;SDS_P2;PMS_P1;PMS_P2;Temp;Humidity;BMP_temperature;BMP_pressure;BME280_temperature;BME280_humidity;BME280_pressure;Samples;Min_cycle;Max_cycle;Signal;HPM_P1;HPM_P2
2021/12/23 04:03:06;;;;;;;25.48;14.52;;;0.00;83.70;;;;;;5008765;27;20527;-47
2021/12/23 04:05:31;;;;;;;27.10;16.42;;;0.00;83.60;;;;;;5006725;28;20023;-48
2021/12/23 04:07:57;;;;;;;29.17;15.05;;;0.10;83.60;;;;;;5008157;28;20025;-48
2021/12/23 04:10:23;;;;;;;25.13;13.77;;;0.10;83.80;;;;;;5008215;28;20026;-48
2021/12/23 04:12:49;;;;;;;23.50;13.50;;;0.20;83.50;;;;;;5007898;28;20026;-50
2021/12/23 04:15:15;;;;;;;28.55;14.75;;;0.10;82.90;;;;;;5007906;28;20030;-48
2021/12/23 04:17:41;;;;;;;22.60;12.60;;;0.10;83.40;;;;;;5008058;28;20147;-49
2021/12/23 04:20:20;;;;;;;21.30;13.25;;;0.00;83.50;;;;;;5007971;28;20150;-50
2021/12/23 04:22:49;;;;;;;26.75;14.48;;;0.00;83.70;;;;;;5008039;28;20041;-47
2021/12/23 04:25:16;;;;;;;23.98;13.73;;;-3276.70;83.40;;;;;;5007670;28;20018;-48
2021/12/23 04:27:44;;;;;;;29.23;14.30;;;-3276.70;83.30;;;;;;5007321;28;20026;-48
2021/12/23 04:30:11;;;;;;;24.90;13.63;;;-3276.70;83.30;;;;;;5006231;28;20037;-48
2021/12/23 04:32:36;;;;;;;28.08;14.90;;;0.00;83.60;;;;;;5007969;28;20026;-49
2021/12/23 04:35:03;;;;;;;30.10;15.63;;;0.00;84.10;;;;;;5007821;28;20032;-48
2021/12/23 04:37:31;;;;;;;26.80;14.32;;;0.20;84.30;;;;;;5005968;28;20034;-49
2021/12/23 04:39:57;;;;;;;30.27;16.63;;;0.30;84.50;;;;;;5007935;28;20432;-52
2021/12/23 04:42:23;;;;;;;30.42;18.58;;;0.10;85.40;;;;;;5008110;28;20026;-47
2021/12/23 04:44:48;;;;;;;29.88;18.13;;;0.30;85.80;;;;;;5007282;28;20074;-49
2021/12/23 04:47:14;;;;;;;36.08;18.38;;;0.10;85.50;;;;;;5007342;28;20447;-49
2021/12/23 04:49:40;;;;;;;31.38;18.40;;;0.00;86.10;;;;;;5006045;28;20015;-49
2021/12/23 04:52:06;;;;;;;30.52;16.50;;;-3276.70;86.60;;;;;;5006055;28;20547;-50
2021/12/23 04:54:32;;;;;;;29.30;16.33;;;-3276.60;87.10;;;;;;5006714;28;20037;-48
2021/12/23 04:56:57;;;;;;;27.98;16.65;;;-3276.60;87.40;;;;;;5007880;28;20026;-50
2021/12/23 04:59:23;;;;;;;28.98;16.75;;;-3276.50;87.60;;;;;;5007325;28;20041;-49
2021/12/23 05:01:50;;;;;;;30.52;15.77;;;-3276.50;87.80;;;;;;5006638;28;20068;-50
2021/12/23 05:04:15;;;;;;;32.10;16.88;;;-3276.50;87.50;;;;;;5007863;28;20026;-49
2021/12/23 05:06:41;;;;;;;32.72;18.70;;;-3276.50;87.30;;;;;;5006999;28;20423;-48
2021/12/23 05:09:07;;;;;;;39.00;17.80;;;-3276.50;86.70;;;;;;5006726;28;20033;-49
2021/12/23 05:11:33;;;;;;;30.00;17.02;;;-3276.50;86.50;;;;;;5006330;28;20084;-51
2021/12/23 05:13:59;;;;;;;33.53;16.80;;;-3276.50;86.90;;;;;;4997066;28;20027;-49
2021/12/23 05:16:24;;;;;;;27.70;15.88;;;-3276.70;87.30;;;;;;4994302;28;20054;-48
2021/12/23 05:18:50;;;;;;;31.00;17.42;;;-3276.70;86.70;;;;;;4993803;28;20026;-52
2021/12/23 05:21:16;;;;;;;33.10;17.30;;;-3276.60;86.60;;;;;;4994002;28;20116;-50
2021/12/23 05:23:41;;;;;;;35.00;20.17;;;-3276.50;86.70;;;;;;4993733;28;20022;-49
2021/12/23 05:26:08;;;;;;;33.45;17.15;;;-3276.40;86.80;;;;;;4994069;28;20072;-50
2021/12/23 05:28:34;;;;;;;28.50;16.02;;;-3276.50;87.20;;;;;;4992199;28;20433;-49
2021/12/23 05:31:01;;;;;;;32.33;15.98;;;-3276.60;87.10;;;;;;4993818;28;20056;-50
2021/12/23 05:33:26;;;;;;;26.50;15.35;;;-3276.60;86.90;;;;;;4993852;28;20069;-49
2021/12/23 05:35:52;;;;;;;27.45;15.30;;;-3276.70;86.60;;;;;;4993277;28;20030;-49
2021/12/23 05:38:18;;;;;;;30.58;17.20;;;0.00;86.10;;;;;;4992069;28;20033;-48
2021/12/23 05:40:43;;;;;;;28.52;16.13;;;0.00;85.60;;;;;;4993977;28;20359;-50
2021/12/23 05:43:09;;;;;;;27.27;15.82;;;0.00;85.10;;;;;;4993662;28;20027;-52
2021/12/23 05:45:35;;;;;;;25.40;13.98;;;0.10;84.20;;;;;;4993264;28;20029;-49
2021/12/23 05:48:00;;;;;;;31.17;17.40;;;0.10;84.00;;;;;;4992531;28;20023;-48
2021/12/23 05:50:26;;;;;;;28.40;15.93;;;0.10;83.20;;;;;;4992967;28;20327;-51
2021/12/23 05:52:53;;;;;;;28.73;15.80;;;0.20;82.80;;;;;;4992908;28;20386;-48
2021/12/23 05:55:21;;;;;;;32.55;18.05;;;0.30;82.60;;;;;;4992673;28;20030;-47
2021/12/23 05:57:47;;;;;;;29.15;16.20;;;0.70;81.30;;;;;;4993028;28;20026;-49
2021/12/23 06:00:22;;;;;;;31.48;16.73;;;0.80;80.40;;;;;;4993097;28;20397;-38
2021/12/23 06:02:48;;;;;;;31.08;16.83;;;0.50;80.80;;;;;;4992642;28;20042;-49
2021/12/23 06:05:14;;;;;;;27.27;15.23;;;0.50;81.50;;;;;;4992734;28;20049;-49
2021/12/23 06:07:41;;;;;;;29.80;16.80;;;0.40;81.50;;;;;;4992999;28;20098;-50
2021/12/23 06:10:08;;;;;;;29.30;15.48;;;0.30;81.90;;;;;;4993318;28;20427;-49
2021/12/23 06:12:33;;;;;;;34.22;19.20;;;0.40;81.80;;;;;;4992439;28;20061;-49
2021/12/23 06:14:59;;;;;;;31.08;16.92;;;0.60;81.20;;;;;;4993078;28;20374;-49
2021/12/23 06:17:25;;;;;;;37.60;16.48;;;0.70;80.60;;;;;;4992898;28;20034;-49
2021/12/23 06:19:51;;;;;;;33.72;17.27;;;0.70;80.80;;;;;;4992848;28;20136;-50
2021/12/23 06:22:18;;;;;;;31.02;16.98;;;0.60;81.10;;;;;;4991358;28;20042;-51
2021/12/23 06:24:47;;;;;;;33.97;18.02;;;0.60;81.20;;;;;;4991777;28;20363;-49
2021/12/23 06:27:14;;;;;;;32.90;17.02;;;0.60;81.40;;;;;;4993085;28;20054;-48
2021/12/23 06:29:39;;;;;;;35.10;17.67;;;0.80;81.50;;;;;;4992496;28;20014;-53
2021/12/23 06:32:05;;;;;;;33.47;18.30;;;0.80;80.70;;;;;;4992386;28;20034;-49
2021/12/23 06:34:31;;;;;;;42.72;21.27;;;0.80;80.70;;;;;;4992929;28;20027;-48
2021/12/23 06:36:57;;;;;;;36.30;19.55;;;0.80;80.40;;;;;;4993295;28;20117;-54
2021/12/23 06:39:23;;;;;;;34.28;18.48;;;1.00;80.30;;;;;;4990808;28;20037;-52
2021/12/23 06:41:48;;;;;;;42.03;18.52;;;0.90;80.10;;;;;;4992032;28;20026;-50
2021/12/23 06:44:15;;;;;;;30.92;17.05;;;0.90;80.00;;;;;;4992577;28;20106;-50
2021/12/23 06:46:40;;;;;;;28.35;17.63;;;0.80;80.20;;;;;;4992488;28;20086;-49
2021/12/23 06:49:06;;;;;;;32.80;15.80;;;0.80;80.90;;;;;;4992175;28;20446;-52
2021/12/23 06:51:32;;;;;;;35.40;17.52;;;0.80;81.00;;;;;;4992488;28;20097;-49
2021/12/23 06:53:59;;;;;;;35.92;18.25;;;0.60;81.10;;;;;;4992841;28;20077;-49
2021/12/23 06:56:26;;;;;;;28.20;16.73;;;0.60;81.40;;;;;;4991109;28;20018;-49
2021/12/23 06:58:51;;;;;;;29.65;15.85;;;0.60;81.40;;;;;;4991574;28;20023;-49
2021/12/23 07:01:20;;;;;;;25.75;16.30;;;0.70;80.70;;;;;;4990812;28;20051;-51
2021/12/23 07:06:34;;;;;;;30.02;15.80;;;1.00;79.70;;;;;;4992282;28;20469;-49
2021/12/23 07:09:02;;;;;;;32.78;17.50;;;0.90;79.30;;;;;;4991503;28;20052;-48
2021/12/23 07:11:28;;;;;;;31.48;17.70;;;0.80;79.70;;;;;;4992303;28;20026;-49
2021/12/23 07:13:53;;;;;;;36.30;19.73;;;1.00;79.80;;;;;;4992120;28;20123;-50
2021/12/23 07:16:19;;;;;;;30.90;15.77;;;0.90;79.50;;;;;;4992001;28;20427;-51
2021/12/23 07:18:45;;;;;;;27.13;15.52;;;0.80;80.00;;;;;;4991666;28;20037;-49
2021/12/23 07:21:10;;;;;;;30.40;17.00;;;1.00;80.20;;;;;;4991758;28;20443;-51
2021/12/23 07:23:36;;;;;;;30.80;16.70;;;0.80;79.70;;;;;;4992482;28;20038;-50
2021/12/23 07:26:02;;;;;;;32.03;16.73;;;0.80;80.10;;;;;;4991768;28;20072;-49
2021/12/23 07:28:27;;;;;;;31.10;16.05;;;0.90;80.00;;;;;;4991514;28;20489;-50
2021/12/23 07:30:55;;;;;;;31.13;16.30;;;0.80;79.90;;;;;;4991435;28;20034;-50
2021/12/23 07:33:21;;;;;;;34.42;17.23;;;0.80;80.20;;;;;;4991271;28;20018;-52
2021/12/23 07:35:48;;;;;;;28.55;16.58;;;0.80;80.70;;;;;;4992036;28;20076;-49
2021/12/23 07:38:15;;;;;;;36.60;18.52;;;0.80;80.70;;;;;;4991536;28;20473;-49
2021/12/23 07:40:41;;;;;;;30.33;16.02;;;0.80;80.70;;;;;;4990875;28;20023;-49
2021/12/23 07:43:21;;;;;;;33.33;18.20;;;0.80;80.80;;;;;;4991363;28;20482;-49
2021/12/23 07:45:49;;;;;;;31.73;17.02;;;1.20;80.10;;;;;;4991299;28;20082;-49
2021/12/23 07:48:15;;;;;;;28.38;16.05;;;1.00;79.70;;;;;;4990972;28;20033;-50
2021/12/23 07:50:41;;;;;;;25.60;15.07;;;0.90;80.30;;;;;;4990963;28;20018;-50
2021/12/23 07:53:07;;;;;;;35.60;16.38;;;1.10;81.00;;;;;;4989508;28;20474;-48
2021/12/23 07:55:33;;;;;;;35.22;17.48;;;1.10;81.10;;;;;;4989978;28;20042;-48
2021/12/23 07:57:58;;;;;;;36.17;18.23;;;1.20;80.80;;;;;;4991019;28;20030;-51
2021/12/23 08:00:28;;;;;;;33.10;18.20;;;1.20;81.20;;;;;;4991165;28;20436;-52
2021/12/23 14:03:12;;;;;;;34.83;15.02;;;5.80;70.50;;;;;;5007413;28;20154;-39
2021/12/23 14:05:42;;;;;;;28.75;14.25;;;5.80;71.00;;;;;;5006195;28;20465;-39
2021/12/23 14:08:09;;;;;;;30.50;14.00;;;5.90;71.20;;;;;;5007170;28;20072;-38
2021/12/23 14:10:46;;;;;;;25.65;13.27;;;6.00;71.20;;;;;;5007313;28;20396;-39
2021/12/23 14:13:16;;;;;;;19.83;11.48;;;6.00;71.30;;;;;;5006841;28;20498;-39
2021/12/23 14:15:50;;;;;;;23.63;13.00;;;5.90;71.70;;;;;;5007038;28;20022;-39
2021/12/23 14:23:43;;;;;;;19.08;11.63;;;6.10;71.90;;;;;;5006858;28;20142;-38
2021/12/23 14:26:09;;;;;;;24.70;10.68;;;6.00;72.30;;;;;;5006524;28;20072;-39
2021/12/23 14:28:44;;;;;;;29.58;12.82;;;6.00;72.70;;;;;;5004750;28;20018;-38
2021/12/23 14:31:12;;;;;;;21.63;11.65;;;6.00;72.80;;;;;;5006953;28;20030;-38
2021/12/23 14:33:49;;;;;;;26.05;14.35;;;6.00;73.10;;;;;;5007082;28;20026;-38
2021/12/23 14:36:39;;;;;;;29.85;13.55;;;6.00;73.50;;;;;;5007447;28;20098;-39
2021/12/23 14:39:14;;;;;;;21.48;13.30;;;5.90;73.80;;;;;;5007274;28;20114;-39
2021/12/23 14:41:51;;;;;;;23.23;12.95;;;5.90;73.80;;;;;;5006157;28;20036;-41
2021/12/23 14:44:17;;;;;;;25.00;14.15;;;5.90;73.90;;;;;;5004374;28;20030;-38
2021/12/23 14:46:49;;;;;;;25.33;14.25;;;5.90;74.30;;;;;;5006212;28;20026;-39
2021/12/23 14:52:27;;;;;;;22.77;13.55;;;5.90;75.00;;;;;;5005962;28;20031;-39
2021/12/23 14:55:11;;;;;;;26.20;13.48;;;5.90;75.50;;;;;;5006294;28;20026;-39
2021/12/23 14:57:51;;;;;;;26.15;14.63;;;6.00;75.10;;;;;;5005417;28;20030;-39
2021/12/23 15:00:30;;;;;;;26.13;11.80;;;5.90;75.40;;;;;;5006013;28;20026;-39
2021/12/23 15:03:04;;;;;;;26.33;14.35;;;5.90;75.70;;;;;;5005321;28;20609;-39
2021/12/23 15:05:31;;;;;;;24.20;13.18;;;5.90;75.90;;;;;;5006037;28;20159;-38
2021/12/23 15:08:06;;;;;;;26.70;14.65;;;5.80;76.30;;;;;;5005677;28;20030;-40
2021/12/23 15:10:45;;;;;;;25.48;11.57;;;5.80;76.60;;;;;;5005686;28;20106;-39
2021/12/23 15:13:29;;;;;;;21.00;12.02;;;5.80;76.90;;;;;;4999193;28;20018;-39
2021/12/23 15:16:00;;;;;;;28.20;13.25;;;5.80;77.20;;;;;;4995807;28;20027;-40
2021/12/23 15:18:37;;;;;;;38.97;14.02;;;5.80;77.30;;;;;;4992758;28;20026;-39
2021/12/23 15:21:07;;;;;;;31.08;17.08;;;5.80;77.60;;;;;;4991429;28;20053;-39
2021/12/23 15:23:39;;;;;;;25.88;13.43;;;5.90;77.50;;;;;;4991326;28;20370;-39
2021/12/23 15:26:26;;;;;;;29.90;15.52;;;5.80;77.80;;;;;;4992518;28;20563;-41
2021/12/23 15:29:16;;;;;;;34.47;18.13;;;5.80;78.20;;;;;;4993064;28;20033;-39
2021/12/23 15:32:03;;;;;;;30.93;15.90;;;5.80;78.50;;;;;;4992643;28;20027;-39
2021/12/23 15:34:30;;;;;;;28.60;15.88;;;5.80;78.50;;;;;;4992686;28;20293;-39
2021/12/23 15:36:57;;;;;;;24.13;12.00;;;5.80;78.70;;;;;;4992934;28;20030;-39
2021/12/23 15:39:34;;;;;;;31.48;15.60;;;5.80;79.10;;;;;;4992995;28;20052;-38
2021/12/23 15:42:01;;;;;;;27.20;15.93;;;5.80;79.30;;;;;;4993502;28;20095;-40
2021/12/23 15:44:30;;;;;;;31.73;17.42;;;5.80;79.40;;;;;;4992611;28;20030;-40
2021/12/23 15:46:58;;;;;;;25.17;12.13;;;5.90;79.70;;;;;;4991085;28;20029;-39
2021/12/23 15:49:26;;;;;;;38.65;19.88;;;6.00;79.80;;;;;;4992170;28;20054;-39
2021/12/23 15:51:52;;;;;;;23.20;13.23;;;6.00;79.90;;;;;;4996003;28;20332;-39
2021/12/23 15:54:18;;;;;;;31.65;16.10;;;5.90;80.30;;;;;;4992435;28;20022;-38
2021/12/23 15:56:44;;;;;;;29.63;16.10;;;5.90;80.50;;;;;;4992244;28;20075;-39
2021/12/23 15:59:10;;;;;;;24.98;13.45;;;5.90;80.70;;;;;;4992421;28;20031;-39
2021/12/23 16:01:36;;;;;;;33.78;16.80;;;6.00;80.80;;;;;;4992197;28;20486;-39
2021/12/23 16:04:05;;;;;;;29.73;15.07;;;6.00;80.80;;;;;;4992344;28;20031;-39
2021/12/23 16:09:19;;;;;;;28.23;15.40;;;6.00;81.10;;;;;;4992734;28;20034;-40
2021/12/23 16:11:49;;;;;;;24.90;13.15;;;5.90;81.40;;;;;;4992314;28;20034;-38
2021/12/23 16:14:16;;;;;;;36.60;18.15;;;5.90;81.20;;;;;;4992567;28;20069;-38
2021/12/23 16:16:42;;;;;;;28.85;16.58;;;5.90;81.50;;;;;;4993293;28;20027;-38
2021/12/23 16:19:08;;;;;;;31.77;14.15;;;5.80;81.80;;;;;;4992302;28;20027;-39
2021/12/23 16:21:33;;;;;;;31.55;16.70;;;5.80;82.00;;;;;;4992106;28;20486;-40
2021/12/23 16:23:59;;;;;;;31.13;18.10;;;5.80;82.10;;;;;;4991828;28;20060;-38
2021/12/23 16:26:26;;;;;;;34.97;17.15;;;5.80;82.10;;;;;;4989938;28;20026;-38
2021/12/23 16:28:56;;;;;;;38.92;18.88;;;5.80;82.10;;;;;;4991996;28;20026;-38
2021/12/23 16:31:24;;;;;;;28.30;15.13;;;5.80;82.40;;;;;;4992116;28;20023;-39
2021/12/23 16:33:50;;;;;;;34.45;17.80;;;5.80;82.60;;;;;;4992309;28;20026;-39
2021/12/23 16:36:16;;;;;;;35.78;20.02;;;5.70;82.80;;;;;;4991740;28;20027;-39
2021/12/23 16:38:42;;;;;;;32.45;17.80;;;5.80;82.70;;;;;;4992116;28;20096;-38
2021/12/23 16:41:09;;;;;;;32.15;17.73;;;5.80;82.80;;;;;;4990198;28;20478;-38
2021/12/23 16:43:35;;;;;;;39.88;17.92;;;5.80;82.90;;;;;;4991715;28;20529;-38
2021/12/23 16:46:02;;;;;;;39.38;20.23;;;5.80;82.90;;;;;;4991734;28;20049;-38
2021/12/23 16:48:27;;;;;;;35.65;18.10;;;5.70;83.20;;;;;;4991103;28;20030;-38
2021/12/23 16:50:57;;;;;;;28.58;14.00;;;5.70;83.50;;;;;;4991198;28;20471;-38
2021/12/23 16:53:23;;;;;;;42.35;17.75;;;5.60;83.70;;;;;;4991322;28;20022;-46
2021/12/23 16:58:21;;;;;;;30.60;15.48;;;5.60;84.10;;;;;;4989760;28;20378;-39
2021/12/23 17:00:50;;;;;;;35.75;16.35;;;5.60;84.20;;;;;;4990390;28;20035;-38
2021/12/23 17:03:17;;;;;;;31.45;17.55;;;5.60;84.20;;;;;;4991046;28;20133;-38
2021/12/23 17:05:44;;;;;;;30.95;16.15;;;5.60;84.30;;;;;;4990707;28;20030;-38
2021/12/23 17:08:11;;;;;;;40.72;19.83;;;5.70;84.10;;;;;;4990709;28;20025;-38
2021/12/23 17:10:37;;;;;;;27.33;16.70;;;5.70;84.20;;;;;;4991526;28;20030;-39
2021/12/23 17:13:03;;;;;;;40.92;20.48;;;5.70;84.40;;;;;;4991215;28;20053;-39
2021/12/23 17:15:30;;;;;;;39.25;19.40;;;5.60;84.80;;;;;;4991360;28;20504;-41
2021/12/23 17:18:08;;;;;;;30.55;15.20;;;5.60;84.90;;;;;;4990529;28;20116;-39
2021/12/23 17:23:10;;;;;;;34.50;16.42;;;5.70;85.50;;;;;;4990955;28;20361;-39
2021/12/23 17:25:38;;;;;;;45.20;20.08;;;5.50;85.70;;;;;;4989677;28;20030;-39
2021/12/23 17:28:05;;;;;;;45.85;21.25;;;5.60;86.00;;;;;;4989604;28;20026;-38
2021/12/23 17:30:31;;;;;;;40.47;20.40;;;5.60;86.00;;;;;;4974615;28;20054;-39
2021/12/23 17:32:59;;;;;;;42.22;20.88;;;5.50;86.20;;;;;;4991492;28;20056;-39
2021/12/23 17:35:30;;;;;;;40.00;19.35;;;5.50;86.60;;;;;;4991605;28;20022;-39
2021/12/23 17:37:58;;;;;;;37.15;17.65;;;5.50;86.70;;;;;;4990034;28;20086;-39
2021/12/23 17:40:25;;;;;;;39.75;19.95;;;5.60;87.00;;;;;;4991481;28;20035;-40
2021/12/23 17:42:51;;;;;;;39.28;20.42;;;5.50;87.10;;;;;;4991297;28;20030;-39
2021/12/23 17:45:17;;;;;;;30.70;16.90;;;5.50;87.30;;;;;;4991381;28;20034;-38
2021/12/23 17:47:43;;;;;;;31.75;17.75;;;5.50;87.40;;;;;;4991859;28;20030;-39
2021/12/23 17:50:09;;;;;;;38.28;20.48;;;5.50;87.60;;;;;;4991626;28;20027;-40
2021/12/23 17:52:35;;;;;;;49.33;23.77;;;5.50;87.70;;;;;;4991401;28;20026;-38
2021/12/23 17:55:01;;;;;;;38.92;19.10;;;5.60;87.80;;;;;;4991412;28;20477;-39
2021/12/23 17:57:27;;;;;;;47.85;24.17;;;5.50;87.90;;;;;;4991099;28;20042;-39
2021/12/23 17:59:52;;;;;;;52.33;22.98;;;5.50;88.10;;;;;;4990922;28;20426;-39
2021/12/23 18:02:19;;;;;;;44.90;21.83;;;5.60;88.10;;;;;;4990821;28;20081;-39
2021/12/23 18:04:46;;;;;;;38.95;18.55;;;5.60;88.20;;;;;;4991129;28;20109;-39
2021/12/23 18:07:12;;;;;;;28.95;16.80;;;5.60;88.30;;;;;;4991422;28;20031;-39
2021/12/23 18:09:38;;;;;;;39.90;20.08;;;5.60;88.50;;;;;;4991096;28;20027;-40
2021/12/23 18:12:05;;;;;;;54.70;22.88;;;5.60;88.60;;;;;;4991170;28;20129;-38
2021/12/23 18:14:31;;;;;;;44.53;22.73;;;5.60;88.80;;;;;;4993691;28;20044;-51
2021/12/23 18:16:57;;;;;;;42.50;22.42;;;5.70;88.70;;;;;;4989953;28;20034;-49
2021/12/23 18:19:23;;;;;;;50.80;24.90;;;5.60;88.80;;;;;;4991514;28;20034;-48
2021/12/23 18:21:49;;;;;;;46.83;24.45;;;5.60;89.10;;;;;;4990586;28;20031;-50
2021/12/23 18:24:14;;;;;;;36.22;18.50;;;5.60;89.30;;;;;;4990685;28;20415;-49
2021/12/23 18:26:40;;;;;;;44.05;21.98;;;5.60;89.50;;;;;;4991205;28;20046;-53
2021/12/23 18:29:06;;;;;;;46.78;25.63;;;5.60;89.80;;;;;;4990324;28;20101;-48
2021/12/23 18:31:35;;;;;;;56.30;28.42;;;5.70;89.70;;;;;;4990324;28;20026;-51
2021/12/23 18:34:02;;;;;;;53.33;26.63;;;5.70;89.60;;;;;;4990026;28;20026;-49
2021/12/23 18:36:38;;;;;;;50.60;27.67;;;5.70;89.90;;;;;;4990624;28;20022;-50
2021/12/23 18:39:14;;;;;;;51.40;25.42;;;5.70;90.00;;;;;;4990178;28;20049;-51
2021/12/23 18:41:41;;;;;;;46.88;27.00;;;5.70;90.10;;;;;;4990494;28;20026;-48
2021/12/23 18:44:09;;;;;;;55.55;25.65;;;5.80;90.10;;;;;;4991255;28;20031;-51
2021/12/23 18:46:35;;;;;;;58.13;28.58;;;5.70;90.20;;;;;;4991297;28;20022;-51
2021/12/23 18:49:02;;;;;;;59.42;28.52;;;5.70;90.20;;;;;;4992698;28;20023;-49
2021/12/23 18:51:30;;;;;;;49.75;23.80;;;5.70;90.20;;;;;;4994056;28;20064;-49
2021/12/23 18:53:56;;;;;;;59.72;29.25;;;5.80;90.30;;;;;;4992522;28;20117;-50
2021/12/23 18:56:22;;;;;;;62.22;30.33;;;5.70;90.50;;;;;;4993314;28;20537;-50
2021/12/23 18:58:49;;;;;;;57.00;30.75;;;5.70;90.80;;;;;;4993581;28;20022;-51
2021/12/23 19:01:19;;;;;;;55.33;29.75;;;5.70;91.10;;;;;;4992823;28;20137;-49
2021/12/23 19:06:19;;;;;;;62.55;28.50;;;5.60;91.90;;;;;;4994496;28;20027;-48
2021/12/23 19:08:58;;;;;;;65.57;31.60;;;5.60;92.10;;;;;;4993926;28;20022;-51
2021/12/23 19:11:33;;;;;;;58.38;31.23;;;5.50;92.50;;;;;;4993965;28;20041;-49
2021/12/23 19:14:01;;;;;;;70.90;31.60;;;5.40;93.30;;;;;;4994004;28;20168;-49
2021/12/23 19:16:28;;;;;;;64.93;33.42;;;5.40;93.70;;;;;;4993305;28;20122;-51
2021/12/23 19:18:53;;;;;;;75.80;33.42;;;5.40;93.90;;;;;;4993590;28;20034;-49
2021/12/23 19:21:19;;;;;;;78.82;36.75;;;5.30;94.30;;;;;;4993791;28;20037;-49
2021/12/23 19:23:45;;;;;;;62.55;32.60;;;5.30;94.40;;;;;;4993688;28;20022;-51
2021/12/23 19:26:12;;;;;;;76.57;37.75;;;5.30;94.70;;;;;;4993895;28;20101;-50
2021/12/23 19:28:41;;;;;;;72.28;36.03;;;5.30;94.70;;;;;;4993246;28;20072;-51
2021/12/23 19:31:08;;;;;;;80.55;39.83;;;5.30;94.90;;;;;;4993490;28;20030;-48
2021/12/23 19:33:34;;;;;;;79.93;38.67;;;5.30;95.00;;;;;;4993501;28;20034;-50
2021/12/23 19:36:00;;;;;;;59.63;28.35;;;5.30;95.10;;;;;;4993586;28;20331;-49
2021/12/23 19:38:26;;;;;;;77.07;37.28;;;5.20;95.10;;;;;;4993804;28;20030;-50
2021/12/23 19:40:52;;;;;;;79.15;35.55;;;5.20;95.30;;;;;;4993319;28;20027;-50
2021/12/23 19:43:18;;;;;;;69.40;33.10;;;5.20;95.30;;;;;;4992014;28;20489;-52
2021/12/23 19:45:44;;;;;;;71.88;32.35;;;5.20;95.60;;;;;;4994053;28;20038;-48
2021/12/23 19:48:11;;;;;;;73.35;34.55;;;5.30;95.60;;;;;;4993832;28;20470;-50
2021/12/23 19:50:40;;;;;;;80.25;35.45;;;5.30;95.60;;;;;;4993385;28;20019;-51
2021/12/23 19:53:06;;;;;;;75.07;34.90;;;5.30;95.70;;;;;;4992618;28;20034;-48
2021/12/23 19:55:33;;;;;;;68.13;35.25;;;5.30;95.70;;;;;;4992805;28;20038;-48
2021/12/23 19:57:58;;;;;;;52.20;26.75;;;5.30;95.70;;;;;;4993198;28;20442;-50
2021/12/23 20:00:28;;;;;;;70.85;33.40;;;5.30;95.80;;;;;;4992672;28;20053;-49
2021/12/23 20:02:58;;;;;;;69.25;32.08;;;5.30;95.90;;;;;;4992934;28;20124;-49
2021/12/23 20:05:25;;;;;;;56.75;24.92;;;5.40;96.00;;;;;;4993117;28;20048;-50
2021/12/23 20:07:50;;;;;;;57.33;27.67;;;5.40;96.00;;;;;;4992403;28;20106;-47
2021/12/23 20:10:21;;;;;;;70.78;31.98;;;5.40;96.10;;;;;;4992355;28;20042;-49
2021/12/23 20:12:49;;;;;;;66.53;31.27;;;5.40;96.10;;;;;;4992808;28;20038;-48
2021/12/23 20:15:15;;;;;;;57.75;26.30;;;5.40;96.20;;;;;;4990677;28;20112;-50
2021/12/23 20:17:41;;;;;;;58.20;30.90;;;5.40;96.10;;;;;;4992015;28;20031;-51
2021/12/23 20:20:10;;;;;;;55.95;26.70;;;5.50;96.30;;;;;;4991991;28;20037;-48
2021/12/23 20:22:36;;;;;;;59.30;28.20;;;5.50;96.30;;;;;;4991197;28;20095;-51
2021/12/23 20:25:03;;;;;;;64.40;28.88;;;5.50;96.30;;;;;;4991750;28;20031;-49
2021/12/23 20:27:31;;;;;;;61.03;28.77;;;5.60;96.40;;;;;;4992441;28;20386;-48
2021/12/23 20:29:57;;;;;;;60.05;30.42;;;5.60;96.40;;;;;;4992939;28;20057;-47
2021/12/23 20:32:23;;;;;;;66.85;29.15;;;5.60;96.50;;;;;;4992581;28;20471;-53
2021/12/23 20:34:48;;;;;;;54.72;28.83;;;5.70;96.60;;;;;;4992362;28;20064;-51
2021/12/23 20:37:15;;;;;;;51.85;25.23;;;5.70;96.60;;;;;;4992059;28;20109;-51
2021/12/23 20:39:41;;;;;;;72.93;33.92;;;5.70;96.70;;;;;;4992422;28;20057;-48
2021/12/23 20:42:07;;;;;;;45.10;20.40;;;5.80;96.80;;;;;;4991724;28;20026;-48
2021/12/23 20:44:33;;;;;;;67.18;32.30;;;5.80;96.80;;;;;;4990679;28;20096;-50
2021/12/23 20:46:59;;;;;;;65.50;31.05;;;5.80;96.80;;;;;;4992442;28;20443;-50
2021/12/23 20:49:25;;;;;;;68.10;30.90;;;5.80;96.90;;;;;;4991670;28;20101;-51
2021/12/23 20:51:53;;;;;;;61.80;31.15;;;5.80;96.80;;;;;;4992384;28;20344;-50
2021/12/23 20:54:23;;;;;;;61.60;32.00;;;6.00;96.80;;;;;;4991886;28;20478;-52
2021/12/23 20:56:51;;;;;;;76.03;34.83;;;5.90;96.80;;;;;;4991763;28;20109;-50
2021/12/23 20:59:18;;;;;;;49.50;28.33;;;6.00;96.80;;;;;;4992311;28;20049;-52
2021/12/23 21:01:44;;;;;;;57.60;28.20;;;6.00;96.80;;;;;;4991731;28;20121;-50
2021/12/23 21:04:10;;;;;;;54.15;28.65;;;6.00;96.80;;;;;;4991781;28;20026;-50
2021/12/23 21:06:36;;;;;;;59.05;28.90;;;6.10;96.80;;;;;;4992075;28;20116;-50
2021/12/23 21:09:08;;;;;;;61.30;32.95;;;6.10;96.80;;;;;;4991728;28;20562;-49
2021/12/23 21:11:35;;;;;;;66.93;32.53;;;6.20;96.90;;;;;;4991224;28;20026;-52
2021/12/23 21:14:03;;;;;;;62.28;33.80;;;6.10;96.90;;;;;;4991723;28;20474;-51
2021/12/23 21:16:32;;;;;;;66.40;33.25;;;6.20;96.90;;;;;;4991220;28;20529;-49
2021/12/23 21:18:59;;;;;;;55.83;28.30;;;6.20;96.90;;;;;;4991819;28;20039;-49
2021/12/23 21:21:26;;;;;;;51.97;27.30;;;6.20;97.00;;;;;;4991623;28;20033;-50
2021/12/23 21:23:56;;;;;;;43.17;26.13;;;6.30;97.00;;;;;;4992123;28;20097;-50
2021/12/23 21:26:22;;;;;;;68.33;34.60;;;6.30;96.90;;;;;;4991669;28;20087;-50
2021/12/23 21:28:48;;;;;;;63.05;31.33;;;6.40;97.00;;;;;;4991545;28;20257;-52
2021/12/23 21:31:23;;;;;;;43.15;21.55;;;6.40;96.90;;;;;;4991268;28;20113;-53
2021/12/23 21:33:50;;;;;;;37.72;21.10;;;6.40;97.00;;;;;;4991922;28;20106;-50
2021/12/23 21:36:15;;;;;;;49.60;22.15;;;6.50;97.00;;;;;;4991814;28;20474;-49
2021/12/23 21:38:41;;;;;;;50.80;23.95;;;6.50;97.00;;;;;;4991715;28;20030;-51
2021/12/23 21:41:07;;;;;;;45.60;24.65;;;6.60;97.00;;;;;;4989728;28;20037;-53
2021/12/23 21:43:32;;;;;;;57.13;31.42;;;6.60;97.00;;;;;;4990306;28;20034;-51
2021/12/23 21:45:58;;;;;;;57.47;30.13;;;6.70;96.90;;;;;;4991651;28;20022;-53
2021/12/23 21:48:24;;;;;;;60.15;30.58;;;6.70;96.90;;;;;;4991726;28;20071;-53
2021/12/23 21:50:50;;;;;;;44.33;25.67;;;6.70;96.90;;;;;;4991422;28;20122;-50
2021/12/23 21:53:17;;;;;;;44.10;25.17;;;6.70;97.00;;;;;;4991352;28;20101;-49
2021/12/23 21:55:43;;;;;;;44.55;23.27;;;6.70;97.00;;;;;;4991702;28;20031;-52
2021/12/23 21:58:11;;;;;;;50.08;23.02;;;6.80;97.10;;;;;;4991547;28;20061;-51
2021/12/23 22:00:40;;;;;;;42.58;23.80;;;6.80;96.90;;;;;;4990263;28;20041;-50
2021/12/23 22:03:07;;;;;;;34.17;20.55;;;6.80;96.90;;;;;;4992497;28;20494;-52
2021/12/23 22:05:33;;;;;;;42.75;23.77;;;6.80;96.90;;;;;;4991465;28;20026;-52
2021/12/23 22:07:59;;;;;;;38.47;21.15;;;6.80;96.90;;;;;;4991507;28;20042;-50
2021/12/23 22:10:25;;;;;;;33.70;20.80;;;6.80;96.80;;;;;;4991133;28;20113;-53
2021/12/23 22:12:52;;;;;;;46.70;26.02;;;6.80;96.90;;;;;;4990269;28;20113;-51
2021/12/23 22:15:28;;;;;;;39.03;22.20;;;6.80;96.90;;;;;;4991249;28;20065;-49
2021/12/23 22:17:53;;;;;;;37.60;21.08;;;6.80;96.90;;;;;;4991377;28;20038;-49
2021/12/23 22:20:19;;;;;;;36.03;20.15;;;6.80;96.90;;;;;;4991493;28;20054;-48
2021/12/23 22:22:46;;;;;;;38.83;22.02;;;6.80;96.90;;;;;;4990970;28;20031;-50
2021/12/23 22:25:13;;;;;;;33.47;20.00;;;6.90;96.80;;;;;;4994547;28;20029;-53
2021/12/23 22:27:38;;;;;;;35.88;20.50;;;6.90;96.80;;;;;;4994514;28;20023;-48
2021/12/23 22:30:09;;;;;;;28.98;17.48;;;6.90;96.80;;;;;;4994787;28;20022;-53
2021/12/23 22:32:34;;;;;;;;;;;7.00;96.80;;;;;;4993390;28;20073;-52
2021/12/23 22:35:00;;;;;;;40.13;22.95;;;6.90;96.80;;;;;;4994130;28;19948;-50
2021/12/23 22:37:26;;;;;;;38.53;20.98;;;7.00;96.80;;;;;;4994594;28;20242;-49
2021/12/23 22:39:52;;;;;;;37.80;22.23;;;7.00;96.80;;;;;;4994054;28;20114;-51
2021/12/23 22:42:18;;;;;;;33.38;16.40;;;7.00;96.80;;;;;;4994467;28;20030;-49
2021/12/23 22:44:44;;;;;;;31.45;15.05;;;7.00;96.90;;;;;;4993985;28;20027;-50
2021/12/23 22:47:10;;;;;;;34.17;19.73;;;7.00;97.00;;;;;;4992983;28;20080;-53
2021/12/23 22:49:37;;;;;;;41.47;23.40;;;7.00;97.10;;;;;;4992890;28;20022;-49
2021/12/23 22:52:05;;;;;;;29.80;17.48;;;7.00;97.10;;;;;;4993842;28;20086;-49
2021/12/23 22:54:31;;;;;;;42.55;22.90;;;7.00;97.20;;;;;;4993939;28;20041;-51
2021/12/23 22:56:56;;;;;;;36.70;22.10;;;7.00;97.20;;;;;;4994428;28;20405;-52
2021/12/23 22:59:22;;;;;;;40.28;22.15;;;7.10;97.30;;;;;;4994175;28;20356;-51
